createdAt,value
2023-04-02T00:02:21.966Z,56.44
2023-04-02T00:07:33.341Z,64.76
2023-04-02T00:12:36.677Z,60.52
2023-04-02T00:17:39.269Z,56.95
2023-04-02T00:22:44.919Z,64.94
2023-04-02T00:27:47.875Z,59.79
2023-04-02T00:32:51.849Z,57.02
2023-04-02T00:37:56.619Z,67.45
2023-04-02T00:43:00.243Z,57.85
2023-04-02T00:48:31.849Z,62.81
2023-04-02T00:53:35.484Z,60.64
2023-04-02T00:58:38.251Z,56.82
2023-04-02T01:03:41.260Z,65.61
2023-04-02T01:08:49.705Z,61.88
2023-04-02T01:14:17.698Z,57.33
2023-04-02T01:19:58.680Z,66.54
2023-04-02T01:25:04.658Z,56.91
2023-04-02T01:30:11.972Z,65.10
2023-04-02T01:35:15.302Z,60.12
2023-04-02T01:40:23.975Z,58.47
2023-04-02T01:45:27.226Z,65.90
2023-04-02T01:50:31.927Z,63.74
2023-04-02T01:55:40.293Z,57.19
2023-04-02T02:01:23.508Z,66.13
2023-04-02T02:06:26.530Z,59.95
2023-04-02T02:11:30.942Z,57.27
2023-04-02T02:16:41.885Z,65.97
2023-04-02T02:21:50.549Z,60.27
2023-04-02T02:27:24.113Z,59.51
2023-04-02T02:32:31.135Z,63.39
2023-04-02T02:37:39.438Z,56.89
2023-04-02T02:42:52.427Z,65.41
2023-04-02T02:47:57.477Z,60.47
2023-04-02T02:53:04.907Z,56.34
2023-04-02T02:58:16.814Z,65.11
2023-04-02T03:03:23.428Z,60.48
2023-04-02T03:08:33.660Z,58.05
2023-04-02T03:13:39.028Z,66.70
2023-04-02T03:19:04.670Z,58.98
2023-04-02T03:24:18.769Z,60.41
2023-04-02T03:29:33.586Z,68.45
2023-04-02T03:34:44.198Z,60.15
2023-04-02T03:39:50.283Z,57.49
2023-04-02T03:45:22.574Z,65.98
2023-04-02T03:50:34.471Z,57.90
2023-04-02T03:55:38.820Z,61.40
2023-04-02T04:00:44.493Z,66.37
2023-04-02T04:06:12.033Z,56.47
2023-04-02T04:11:18.474Z,64.96
2023-04-02T04:16:32.390Z,59.50
2023-04-02T04:21:38.236Z,58.40
2023-04-02T04:26:53.588Z,65.29
2023-04-02T04:32:09.103Z,56.17
2023-04-02T04:37:25.405Z,63.69
2023-04-02T04:42:33.272Z,63.97
2023-04-02T04:47:42.004Z,56.80
2023-04-02T04:52:44.975Z,65.58
2023-04-02T04:57:51.000Z,60.06
2023-04-02T05:03:35.862Z,57.58
2023-04-02T05:08:44.058Z,64.89
2023-04-02T05:13:56.740Z,57.83
2023-04-02T05:19:09.654Z,65.54
2023-04-02T05:24:34.555Z,58.49
2023-04-02T05:29:41.529Z,59.50
2023-04-02T05:34:48.917Z,67.22
2023-04-02T05:40:01.580Z,58.64
2023-04-02T05:45:23.980Z,62.42
2023-04-02T05:50:30.858Z,63.83
2023-04-02T05:55:40.005Z,58.36
2023-04-02T06:01:01.642Z,63.68
2023-04-02T06:06:14.752Z,60.79
2023-04-02T06:11:28.040Z,61.10
2023-04-02T06:16:32.036Z,65.22
2023-04-02T06:21:34.945Z,56.89
2023-04-02T06:26:44.910Z,62.78
2023-04-02T06:31:52.124Z,61.86
2023-04-02T06:36:58.721Z,57.80
2023-04-02T06:42:05.549Z,64.07
2023-04-02T06:47:21.540Z,58.79
2023-04-02T06:52:30.156Z,65.58
2023-04-02T06:57:35.902Z,57.77
2023-04-02T07:02:41.029Z,62.79
2023-04-02T07:07:43.820Z,62.04
2023-04-02T07:12:47.415Z,59.58
2023-04-02T07:17:50.169Z,64.47
2023-04-02T07:22:53.399Z,58.83
2023-04-02T07:27:56.468Z,62.04
2023-04-02T07:32:59.216Z,62.73
2023-04-02T07:38:02.050Z,61.48
2023-04-02T07:43:06.212Z,63.09
2023-04-02T07:48:11.536Z,60.56
2023-04-02T07:53:30.094Z,62.16
2023-04-02T07:58:34.005Z,58.71
2023-04-02T08:03:36.859Z,64.42
2023-04-02T08:08:40.057Z,57.41
2023-04-02T08:13:43.465Z,62.39
2023-04-02T08:18:47.673Z,60.71
2023-04-02T08:23:50.603Z,59.10
2023-04-02T08:28:53.377Z,62.27
2023-04-02T08:33:57.136Z,58.26
2023-04-02T08:39:00.125Z,63.47
2023-04-02T08:44:23.100Z,57.78
2023-04-02T08:49:44.599Z,61.97
2023-04-02T08:54:47.442Z,62.10
2023-04-02T08:59:59.465Z,57.52
2023-04-02T09:05:07.167Z,64.77
2023-04-02T09:10:17.736Z,59.38
2023-04-02T09:15:31.666Z,56.84
2023-04-02T09:20:34.418Z,65.48
2023-04-02T09:25:48.479Z,57.17
2023-04-02T09:31:06.936Z,63.91
2023-04-02T09:36:34.784Z,56.60
2023-04-02T09:41:37.552Z,64.70
2023-04-02T09:46:59.617Z,57.12
2023-04-02T09:52:26.802Z,58.94
2023-04-02T09:57:30.253Z,66.29
2023-04-02T10:02:33.203Z,56.71
2023-04-02T10:08:05.671Z,60.33
2023-04-02T10:13:28.848Z,62.73
2023-04-02T10:18:51.949Z,54.76
2023-04-02T10:23:55.728Z,62.06
2023-04-02T10:29:12.710Z,59.71
2023-04-02T10:34:25.965Z,57.60
2023-04-02T10:39:29.814Z,63.75
2023-04-02T10:44:41.665Z,59.80
2023-04-02T10:49:50.261Z,54.58
2023-04-02T10:54:57.316Z,62.06
2023-04-02T11:00:15.993Z,58.14
2023-04-02T11:05:44.535Z,60.16
2023-04-02T11:11:10.152Z,60.33
2023-04-02T11:16:16.723Z,56.38
2023-04-02T11:22:00.081Z,62.40
2023-04-02T11:27:09.863Z,56.07
2023-04-02T11:32:15.725Z,59.16
2023-04-02T11:37:45.217Z,60.78
2023-04-02T11:42:50.070Z,57.52
2023-04-02T11:48:02.319Z,60.43
2023-04-02T11:53:11.656Z,55.17
2023-04-02T11:58:54.588Z,60.11
2023-04-02T12:04:18.864Z,61.70
2023-04-02T12:10:00.828Z,55.79
2023-04-02T12:15:08.650Z,59.93
2023-04-02T12:20:13.821Z,60.19
2023-04-02T12:25:19.268Z,61.41
2023-04-02T12:30:23.688Z,59.35
2023-04-02T12:35:28.561Z,56.98
2023-04-02T12:40:31.363Z,60.06
2023-04-02T12:45:34.750Z,60.89
2023-04-02T12:50:41.759Z,61.03
2023-04-02T12:55:48.672Z,60.64
2023-04-02T13:00:51.452Z,59.71
2023-04-02T13:05:56.262Z,60.72
2023-04-02T13:11:01.902Z,58.94
2023-04-02T13:16:22.707Z,58.61
2023-04-02T13:21:30.190Z,58.94
2023-04-02T13:26:32.902Z,58.82
2023-04-02T13:31:35.681Z,60.67
2023-04-02T13:36:38.486Z,59.94
2023-04-02T13:41:48.327Z,59.39
2023-04-02T13:46:52.103Z,58.09
2023-04-02T13:52:03.099Z,58.81
2023-04-02T13:57:06.337Z,57.80
2023-04-02T14:02:12.877Z,58.05
2023-04-02T14:07:15.912Z,56.73
2023-04-02T14:12:28.584Z,56.15
2023-04-02T14:17:57.162Z,56.44
2023-04-02T14:23:09.170Z,56.47
2023-04-02T14:28:23.758Z,55.89
2023-04-02T14:33:32.266Z,54.95
2023-04-02T14:39:18.513Z,55.19
2023-04-02T14:44:25.090Z,55.47
2023-04-02T14:49:41.828Z,53.72
2023-04-02T14:54:55.495Z,51.89
2023-04-02T15:00:01.421Z,51.60
2023-04-02T15:05:14.671Z,52.05
2023-04-02T15:10:28.848Z,50.85
2023-04-02T15:15:41.410Z,51.65
2023-04-02T15:21:02.974Z,50.57
2023-04-02T15:26:10.918Z,50.04
2023-04-02T15:31:14.973Z,49.99
2023-04-02T15:36:28.442Z,49.19
2023-04-02T15:41:40.657Z,48.46
2023-04-02T15:47:11.257Z,49.75
2023-04-02T15:52:36.950Z,48.62
2023-04-02T15:57:54.701Z,49.11
2023-04-02T16:03:23.906Z,49.21
2023-04-02T16:08:57.208Z,49.72
2023-04-02T16:14:15.895Z,49.68
2023-04-02T16:19:40.118Z,49.33
2023-04-02T16:24:46.300Z,47.69
2023-04-02T16:30:22.689Z,44.14
2023-04-02T16:35:50.399Z,42.61
2023-04-02T16:41:23.057Z,40.14
2023-04-02T16:46:47.863Z,38.92
2023-04-02T16:51:53.192Z,37.79
2023-04-02T16:56:56.371Z,36.90
2023-04-02T17:02:37.420Z,36.75
2023-04-02T17:08:01.854Z,38.46
2023-04-02T17:13:14.193Z,40.25
2023-04-02T17:18:24.639Z,42.11
2023-04-02T17:23:29.722Z,43.13
2023-04-02T17:28:37.567Z,44.38
2023-04-02T17:33:40.322Z,45.74
2023-04-02T17:39:05.678Z,48.49
2023-04-02T17:44:17.262Z,50.59
2023-04-02T17:49:32.450Z,52.07
2023-04-02T17:54:59.994Z,53.42
2023-04-02T18:00:15.090Z,54.29
2023-04-02T18:05:44.216Z,54.94
2023-04-02T18:11:12.679Z,55.44
2023-04-02T18:16:30.231Z,55.80
2023-04-02T18:21:46.715Z,56.56
2023-04-02T18:27:02.962Z,57.32
2023-04-02T18:32:40.403Z,58.01
2023-04-02T18:38:00.965Z,58.83
2023-04-02T18:43:12.888Z,59.32
2023-04-02T18:48:24.615Z,60.01
2023-04-02T18:53:31.172Z,60.41
2023-04-02T18:58:57.006Z,60.84
2023-04-02T19:04:13.193Z,61.39
2023-04-02T19:09:16.436Z,61.90
2023-04-02T19:14:21.388Z,61.85
2023-04-02T19:19:27.281Z,55.10
2023-04-02T19:24:51.490Z,57.20
2023-04-02T19:30:06.684Z,59.42
2023-04-02T19:35:34.303Z,63.41
2023-04-02T19:40:56.510Z,52.53
2023-04-02T19:46:02.134Z,54.18
2023-04-02T19:51:04.988Z,58.72
2023-04-02T19:56:08.328Z,61.01
2023-04-02T20:01:11.228Z,63.66
2023-04-02T20:06:14.103Z,54.35
2023-04-02T20:11:17.580Z,56.81
2023-04-02T20:16:22.206Z,60.43
2023-04-02T20:21:24.967Z,62.50
2023-04-02T20:26:27.860Z,62.42
2023-04-02T20:31:31.028Z,52.19
2023-04-02T20:36:33.909Z,55.85
2023-04-02T20:41:36.688Z,59.02
2023-04-02T20:46:40.302Z,64.16
2023-04-02T20:51:43.321Z,56.24
2023-04-02T20:56:46.106Z,51.88
2023-04-02T21:01:48.766Z,56.69
2023-04-02T21:06:56.904Z,61.23
2023-04-02T21:11:59.813Z,63.43
2023-04-02T21:17:02.523Z,53.58
2023-04-02T21:22:05.341Z,56.98
2023-04-02T21:27:08.007Z,60.12
2023-04-02T21:32:20.773Z,65.49
2023-04-02T21:37:24.588Z,56.36
2023-04-02T21:42:28.091Z,50.78
2023-04-02T21:47:30.945Z,55.32
2023-04-02T21:52:33.730Z,60.11
2023-04-02T21:57:36.428Z,65.65
2023-04-02T22:02:39.395Z,57.94
2023-04-02T22:07:42.240Z,52.78
2023-04-02T22:12:45.013Z,58.41
2023-04-02T22:17:47.738Z,61.98
2023-04-02T22:22:51.431Z,63.18
2023-04-02T22:27:54.276Z,50.38
2023-04-02T22:32:56.989Z,55.43
2023-04-02T22:37:59.787Z,60.14
2023-04-02T22:43:03.127Z,64.88
2023-04-02T22:48:06.370Z,51.60
2023-04-02T22:53:11.922Z,52.61
2023-04-02T22:58:14.726Z,57.64
2023-04-02T23:03:17.529Z,60.91
2023-04-02T23:08:20.330Z,64.28
2023-04-02T23:13:23.019Z,53.14
2023-04-02T23:18:25.703Z,52.86
2023-04-02T23:23:28.923Z,55.91
2023-04-02T23:28:32.322Z,60.12
2023-04-02T23:33:35.235Z,64.64
2023-04-02T23:38:37.971Z,51.38
2023-04-02T23:43:40.864Z,51.41
2023-04-02T23:48:45.946Z,55.67
2023-04-02T23:53:50.167Z,59.74
2023-04-02T23:58:52.940Z,65.21
